createdAt,value
2023-05-25T00:02:34.378Z,1.20
2023-05-25T00:06:01.302Z,1.00
2023-05-25T00:09:26.198Z,1.40
2023-05-25T00:12:49.872Z,1.17
2023-05-25T00:16:14.922Z,1.17
2023-05-25T00:19:42.481Z,1.20
2023-05-25T00:23:06.158Z,1.17
2023-05-25T00:26:29.709Z,1.00
2023-05-25T00:29:53.267Z,1.00
2023-05-25T00:33:18.291Z,1.10
2023-05-25T00:36:43.235Z,1.10
2023-05-25T00:40:14.199Z,1.30
2023-05-25T00:43:37.783Z,1.10
2023-05-25T00:47:02.988Z,1.27
2023-05-25T00:50:40.576Z,1.90
2023-05-25T00:54:04.288Z,1.13
2023-05-25T00:57:34.287Z,1.10
2023-05-25T01:01:01.038Z,1.30
2023-05-25T01:04:28.394Z,1.17
2023-05-25T01:07:56.969Z,1.50
2023-05-25T01:11:29.713Z,1.27
2023-05-25T01:14:55.914Z,1.40
2023-05-25T01:18:21.657Z,1.23
2023-05-25T01:21:58.018Z,1.20
2023-05-25T01:25:26.652Z,1.30
2023-05-25T01:28:54.481Z,1.23
2023-05-25T01:32:19.795Z,1.27
2023-05-25T01:35:44.426Z,1.20
2023-05-25T01:39:11.040Z,1.30
2023-05-25T01:42:35.025Z,1.03
2023-05-25T01:46:16.463Z,1.33
2023-05-25T01:49:57.213Z,1.20
2023-05-25T01:53:27.458Z,1.40
2023-05-25T01:56:56.406Z,1.20
2023-05-25T02:00:22.573Z,1.40
2023-05-25T02:03:50.161Z,1.20
2023-05-25T02:07:13.921Z,1.43
2023-05-25T02:10:37.529Z,1.30
2023-05-25T02:14:03.192Z,1.30
2023-05-25T02:17:28.710Z,1.07
2023-05-25T02:20:52.304Z,1.17
2023-05-25T02:24:16.086Z,1.20
2023-05-25T02:27:39.597Z,1.50
2023-05-25T02:31:05.473Z,1.27
2023-05-25T02:34:29.116Z,1.40
2023-05-25T02:37:53.650Z,1.20
2023-05-25T02:41:17.360Z,1.10
2023-05-25T02:44:41.359Z,1.30
2023-05-25T02:48:06.587Z,1.50
2023-05-25T02:51:32.381Z,1.40
2023-05-25T02:54:56.478Z,1.10
2023-05-25T02:58:27.571Z,1.40
2023-05-25T03:02:03.568Z,1.30
2023-05-25T03:05:28.818Z,1.60
2023-05-25T03:08:52.457Z,1.10
2023-05-25T03:12:16.164Z,1.60
2023-05-25T03:15:40.174Z,1.40
2023-05-25T03:19:05.449Z,1.47
2023-05-25T03:22:32.847Z,1.30
2023-05-25T03:25:56.577Z,1.20
2023-05-25T03:29:20.403Z,1.23
2023-05-25T03:32:44.074Z,1.50
2023-05-25T03:36:09.837Z,1.23
2023-05-25T03:39:34.764Z,1.20
2023-05-25T03:42:58.338Z,1.37
2023-05-25T03:46:22.366Z,1.30
2023-05-25T03:49:45.878Z,1.40
2023-05-25T03:53:09.805Z,1.20
2023-05-25T03:56:34.658Z,1.30
2023-05-25T03:59:58.853Z,1.17
2023-05-25T04:03:22.595Z,1.50
2023-05-25T04:06:48.910Z,1.40
2023-05-25T04:10:21.499Z,1.50
2023-05-25T04:13:46.784Z,1.50
2023-05-25T04:17:10.841Z,1.50
2023-05-25T04:20:37.986Z,1.70
2023-05-25T04:24:06.519Z,1.50
2023-05-25T04:27:30.774Z,1.73
2023-05-25T04:30:57.766Z,2.93
2023-05-25T04:34:44.812Z,1.40
2023-05-25T04:38:17.734Z,1.57
2023-05-25T04:41:41.544Z,1.53
2023-05-25T04:45:10.521Z,1.50
2023-05-25T04:48:38.399Z,1.53
2023-05-25T04:52:02.449Z,1.47
2023-05-25T04:55:27.965Z,1.60
2023-05-25T04:58:51.931Z,1.33
2023-05-25T05:02:16.880Z,1.53
2023-05-25T05:05:44.091Z,1.80
2023-05-25T05:09:13.280Z,1.20
2023-05-25T05:12:37.374Z,1.93
2023-05-25T05:16:02.340Z,1.57
2023-05-25T05:19:26.120Z,1.70
2023-05-25T05:22:53.062Z,1.50
2023-05-25T05:26:17.028Z,1.70
2023-05-25T05:29:41.033Z,1.60
2023-05-25T05:33:05.342Z,1.90
2023-05-25T05:36:45.329Z,2.80
2023-05-25T05:40:20.831Z,1.50
2023-05-25T05:43:46.538Z,1.60
2023-05-25T05:47:10.472Z,1.67
2023-05-25T05:50:34.903Z,1.53
2023-05-25T05:53:58.972Z,1.90
2023-05-25T05:57:24.415Z,1.80
2023-05-25T06:00:48.437Z,1.70
2023-05-25T06:04:12.463Z,1.70
2023-05-25T06:07:38.076Z,1.80
2023-05-25T06:11:02.028Z,1.70
2023-05-25T06:14:28.781Z,1.80
2023-05-25T06:17:56.786Z,1.70
2023-05-25T06:21:20.810Z,2.23
2023-05-25T06:24:46.233Z,1.70
2023-05-25T06:28:10.632Z,1.73
2023-05-25T06:31:36.469Z,1.63
2023-05-25T06:35:00.284Z,2.10
2023-05-25T06:38:25.214Z,1.40
2023-05-25T06:41:50.995Z,1.90
2023-05-25T06:45:24.292Z,1.67
2023-05-25T06:48:49.420Z,1.63
2023-05-25T06:52:13.020Z,1.80
2023-05-25T06:55:36.553Z,1.80
2023-05-25T06:59:00.247Z,1.90
2023-05-25T07:02:24.043Z,1.90
2023-05-25T07:05:49.221Z,1.83
2023-05-25T07:09:13.634Z,1.67
2023-05-25T07:12:37.328Z,1.80
2023-05-25T07:16:01.001Z,1.70
2023-05-25T07:19:24.652Z,1.80
2023-05-25T07:22:49.988Z,2.33
2023-05-25T07:26:15.614Z,2.07
2023-05-25T07:29:39.285Z,2.37
2023-05-25T07:33:02.965Z,1.97
2023-05-25T07:36:26.627Z,2.20
2023-05-25T07:39:51.533Z,1.87
2023-05-25T07:43:15.114Z,2.13
2023-05-25T07:46:38.830Z,1.87
2023-05-25T07:50:02.766Z,2.10
2023-05-25T07:53:26.543Z,1.80
2023-05-25T07:56:51.684Z,2.00
2023-05-25T08:00:16.541Z,1.80
2023-05-25T08:07:11.610Z,2.00
2023-05-25T08:10:35.183Z,2.17
2023-05-25T08:14:00.708Z,1.90
2023-05-25T08:17:24.717Z,2.50
2023-05-25T08:20:48.487Z,2.50
2023-05-25T08:24:12.336Z,2.40
2023-05-25T08:27:36.573Z,2.60
2023-05-25T08:31:01.850Z,2.30
2023-05-25T08:34:25.448Z,2.00
2023-05-25T08:37:48.996Z,2.17
2023-05-25T08:41:14.506Z,2.60
2023-05-25T08:44:40.511Z,2.30
2023-05-25T08:48:12.473Z,2.33
2023-05-25T08:51:38.650Z,2.40
2023-05-25T08:55:07.708Z,2.23
2023-05-25T08:58:35.521Z,2.50
2023-05-25T09:02:16.778Z,2.30
2023-05-25T09:05:42.611Z,2.00
2023-05-25T09:09:06.842Z,2.20
2023-05-25T09:12:32.624Z,2.20
2023-05-25T09:15:57.032Z,2.30
2023-05-25T09:19:21.699Z,2.23
2023-05-25T09:22:48.651Z,2.37
2023-05-25T09:26:12.657Z,2.50
2023-05-25T09:29:36.934Z,2.40
2023-05-25T09:33:12.063Z,2.80
2023-05-25T09:36:39.077Z,2.00
2023-05-25T09:40:05.509Z,2.40
2023-05-25T09:43:40.631Z,2.30
2023-05-25T09:47:08.104Z,2.37
2023-05-25T09:50:32.585Z,2.50
2023-05-25T09:53:56.518Z,2.50
2023-05-25T09:57:22.189Z,2.20
2023-05-25T10:00:46.453Z,2.10
2023-05-25T10:04:10.380Z,2.57
2023-05-25T10:07:35.158Z,2.50
2023-05-25T10:10:59.187Z,2.10
2023-05-25T10:14:29.779Z,1.97
2023-05-25T10:17:56.241Z,2.33
2023-05-25T10:21:21.676Z,2.20
2023-05-25T10:24:54.909Z,1.90
2023-05-25T10:28:27.597Z,2.10
2023-05-25T10:31:54.326Z,2.33
2023-05-25T10:35:20.555Z,1.93
2023-05-25T10:38:44.848Z,2.00
2023-05-25T10:42:09.347Z,2.20
2023-05-25T10:45:34.042Z,1.90
2023-05-25T10:49:02.365Z,2.20
2023-05-25T10:52:29.856Z,1.80
2023-05-25T10:56:04.400Z,2.00
2023-05-25T10:59:29.038Z,2.27
2023-05-25T11:02:55.835Z,2.37
2023-05-25T11:06:23.548Z,2.03
2023-05-25T11:09:59.779Z,2.43
2023-05-25T11:13:41.408Z,2.10
2023-05-25T11:17:07.936Z,1.73
2023-05-25T11:20:32.006Z,1.83
2023-05-25T11:23:59.664Z,2.20
2023-05-25T11:27:30.621Z,2.07
2023-05-25T11:30:54.521Z,2.07
2023-05-25T11:34:21.958Z,2.50
2023-05-25T11:37:53.566Z,2.40
2023-05-25T11:41:19.649Z,2.30
2023-05-25T11:44:43.592Z,2.10
2023-05-25T11:48:07.786Z,2.07
2023-05-25T11:51:32.349Z,2.30
2023-05-25T11:54:56.021Z,2.30
2023-05-25T11:58:21.769Z,1.93
2023-05-25T12:01:45.421Z,2.10
2023-05-25T12:05:11.068Z,2.10
2023-05-25T12:08:35.881Z,1.97
2023-05-25T12:12:00.735Z,2.17
2023-05-25T12:15:27.135Z,1.80
2023-05-25T12:18:52.305Z,2.27
2023-05-25T12:22:16.785Z,1.93
2023-05-25T12:25:50.449Z,2.10
2023-05-25T12:29:15.135Z,2.20
2023-05-25T12:36:44.451Z,2.10
2023-05-25T12:40:20.545Z,2.17
2023-05-25T12:43:44.483Z,1.73
2023-05-25T12:47:14.355Z,1.90
2023-05-25T12:50:38.108Z,1.97
2023-05-25T12:54:03.136Z,1.83
2023-05-25T12:57:36.252Z,2.17
2023-05-25T13:01:00.074Z,2.00
2023-05-25T13:04:24.032Z,2.20
2023-05-25T13:07:47.719Z,2.27
2023-05-25T13:11:12.674Z,2.10
2023-05-25T13:14:36.281Z,2.20
2023-05-25T13:18:00.154Z,2.50
2023-05-25T13:21:23.928Z,2.20
2023-05-25T13:24:47.518Z,1.97
2023-05-25T13:28:12.927Z,2.10
2023-05-25T13:31:36.619Z,2.00
2023-05-25T13:35:01.114Z,1.97
2023-05-25T13:38:24.897Z,2.07
2023-05-25T13:41:48.571Z,1.80
2023-05-25T13:45:14.143Z,2.40
2023-05-25T13:48:38.143Z,2.00
2023-05-25T13:52:01.916Z,2.10
2023-05-25T13:55:25.560Z,2.53
2023-05-25T13:58:49.679Z,2.00
2023-05-25T14:02:15.044Z,2.20
2023-05-25T14:05:38.990Z,2.30
2023-05-25T14:09:02.733Z,2.20
2023-05-25T14:12:27.745Z,2.10
2023-05-25T14:15:51.609Z,2.37
2023-05-25T14:19:17.408Z,2.00
2023-05-25T14:22:41.177Z,2.17
2023-05-25T14:26:05.687Z,2.30
2023-05-25T14:29:29.331Z,1.87
2023-05-25T14:32:53.041Z,2.40
2023-05-25T14:36:18.395Z,1.87
2023-05-25T14:39:42.119Z,2.00
2023-05-25T14:43:06.008Z,2.10
2023-05-25T14:46:29.582Z,1.90
2023-05-25T14:49:53.583Z,2.20
2023-05-25T14:53:19.524Z,1.97
2023-05-25T14:56:43.001Z,2.40
2023-05-25T15:00:08.197Z,1.80
2023-05-25T15:03:32.520Z,2.17
2023-05-25T15:06:56.398Z,2.30
2023-05-25T15:10:21.578Z,2.27
2023-05-25T15:13:45.377Z,1.90
2023-05-25T15:17:09.256Z,2.10
2023-05-25T15:20:33.357Z,1.90
2023-05-25T15:23:57.092Z,2.00
2023-05-25T15:27:22.200Z,2.10
2023-05-25T15:30:45.881Z,1.80
2023-05-25T15:34:11.139Z,2.27
2023-05-25T15:37:35.938Z,2.00
2023-05-25T15:40:59.825Z,2.00
2023-05-25T15:44:24.852Z,2.37
2023-05-25T15:47:49.111Z,1.90
2023-05-25T15:51:12.722Z,2.10
2023-05-25T15:54:36.463Z,2.00
2023-05-25T15:58:00.235Z,1.70
2023-05-25T16:01:25.508Z,2.17
2023-05-25T16:04:49.135Z,1.77
2023-05-25T16:08:13.972Z,1.80
2023-05-25T16:11:37.726Z,2.20
2023-05-25T16:15:01.409Z,1.87
2023-05-25T16:18:26.977Z,2.00
2023-05-25T16:21:51.187Z,1.83
2023-05-25T16:25:15.009Z,2.20
2023-05-25T16:28:38.923Z,2.00
2023-05-25T16:32:02.754Z,2.10
2023-05-25T16:35:27.894Z,1.90
2023-05-25T16:38:51.562Z,2.13
2023-05-25T16:42:15.189Z,1.80
2023-05-25T16:45:39.021Z,1.70
2023-05-25T16:49:02.644Z,1.80
2023-05-25T16:52:27.635Z,1.97
2023-05-25T16:55:51.560Z,1.60
2023-05-25T16:59:15.330Z,1.67
2023-05-25T17:02:39.278Z,1.73
2023-05-25T17:06:03.044Z,2.00
2023-05-25T17:09:28.613Z,2.03
2023-05-25T17:12:53.003Z,1.80
2023-05-25T17:16:18.951Z,2.50
2023-05-25T17:19:43.084Z,1.80
2023-05-25T17:23:08.723Z,1.70
2023-05-25T17:26:35.760Z,2.00
2023-05-25T17:29:59.798Z,1.90
2023-05-25T17:33:23.516Z,2.00
2023-05-25T17:36:48.038Z,1.90
2023-05-25T17:40:13.900Z,1.93
2023-05-25T17:43:38.853Z,1.70
2023-05-25T17:47:02.494Z,1.90
2023-05-25T17:50:26.540Z,1.90
2023-05-25T17:53:50.176Z,1.90
2023-05-25T17:57:13.763Z,1.80
2023-05-25T18:00:39.296Z,2.00
2023-05-25T18:04:03.289Z,1.97
2023-05-25T18:07:27.148Z,1.90
2023-05-25T18:10:52.719Z,2.07
2023-05-25T18:14:16.391Z,1.67
2023-05-25T18:17:41.543Z,1.70
2023-05-25T18:21:05.761Z,2.07
2023-05-25T18:24:29.303Z,2.20
2023-05-25T18:27:52.908Z,1.97
2023-05-25T18:31:16.502Z,1.73
2023-05-25T18:34:41.450Z,1.87
2023-05-25T18:38:05.174Z,1.93
2023-05-25T18:41:28.872Z,1.90
2023-05-25T18:44:52.390Z,1.87
2023-05-25T18:48:18.940Z,1.93
2023-05-25T18:51:44.734Z,1.80
2023-05-25T18:55:09.676Z,1.73
2023-05-25T18:58:33.308Z,1.93
2023-05-25T19:01:56.927Z,2.30
2023-05-25T19:05:21.551Z,1.70
2023-05-25T19:08:46.523Z,1.63
2023-05-25T19:12:10.363Z,1.80
2023-05-25T19:15:33.878Z,2.30
2023-05-25T19:18:57.436Z,2.00
2023-05-25T19:22:20.929Z,2.03
2023-05-25T19:25:46.665Z,2.40
2023-05-25T19:29:10.620Z,2.00
2023-05-25T19:32:34.647Z,2.30
2023-05-25T19:35:58.338Z,2.37
2023-05-25T19:39:22.160Z,2.10
2023-05-25T19:42:49.026Z,2.30
2023-05-25T19:46:12.684Z,1.90
2023-05-25T19:49:36.741Z,2.03
2023-05-25T19:53:01.436Z,2.30
2023-05-25T19:56:25.973Z,2.20
2023-05-25T19:59:51.117Z,2.37
2023-05-25T20:03:16.208Z,1.70
2023-05-25T20:06:40.733Z,2.03
2023-05-25T20:10:06.090Z,1.93
2023-05-25T20:13:29.799Z,2.20
2023-05-25T20:16:55.946Z,2.10
2023-05-25T20:20:19.920Z,1.77
2023-05-25T20:23:43.678Z,1.60
2023-05-25T20:27:07.516Z,2.20
2023-05-25T20:30:31.247Z,1.90
2023-05-25T20:33:56.241Z,2.00
2023-05-25T20:37:19.984Z,1.87
2023-05-25T20:40:43.907Z,2.13
2023-05-25T20:44:08.860Z,1.93
2023-05-25T20:47:32.829Z,2.00
2023-05-25T20:50:57.866Z,1.80
2023-05-25T20:54:21.722Z,2.03
2023-05-25T20:57:45.539Z,1.90
2023-05-25T21:01:09.576Z,1.80
2023-05-25T21:04:33.468Z,1.83
2023-05-25T21:07:58.671Z,2.10
2023-05-25T21:11:23.050Z,2.10
2023-05-25T21:14:46.857Z,1.80
2023-05-25T21:18:10.861Z,1.90
2023-05-25T21:21:35.136Z,2.03
2023-05-25T21:25:00.302Z,1.70
2023-05-25T21:28:24.818Z,2.40
2023-05-25T21:31:48.582Z,1.80
2023-05-25T21:35:12.614Z,1.80
2023-05-25T21:38:36.364Z,1.90
2023-05-25T21:42:01.849Z,1.50
2023-05-25T21:45:25.974Z,1.70
2023-05-25T21:48:49.856Z,1.70
2023-05-25T21:52:13.501Z,2.10
2023-05-25T21:55:37.066Z,1.70
2023-05-25T21:59:02.086Z,2.20
2023-05-25T22:02:26.008Z,1.80
2023-05-25T22:05:50.039Z,1.90
2023-05-25T22:09:13.725Z,1.77
2023-05-25T22:12:37.894Z,2.07
2023-05-25T22:16:03.263Z,1.70
2023-05-25T22:19:27.242Z,1.93
2023-05-25T22:22:50.937Z,2.10
2023-05-25T22:26:14.963Z,1.87
2023-05-25T22:29:38.663Z,1.93
2023-05-25T22:33:04.104Z,2.00
2023-05-25T22:36:27.927Z,2.30
2023-05-25T22:39:52.043Z,1.90
2023-05-25T22:43:16.070Z,2.20
2023-05-25T22:46:39.825Z,2.33
2023-05-25T22:50:05.159Z,2.37
2023-05-25T22:53:28.869Z,1.80
2023-05-25T22:56:52.641Z,1.73
2023-05-25T23:00:16.803Z,1.70
2023-05-25T23:03:40.592Z,1.87
2023-05-25T23:07:06.413Z,1.90
2023-05-25T23:10:30.112Z,2.00
2023-05-25T23:13:54.708Z,1.80
2023-05-25T23:17:18.509Z,2.10
2023-05-25T23:20:42.279Z,2.20
2023-05-25T23:24:08.004Z,1.93
2023-05-25T23:27:32.546Z,2.00
2023-05-25T23:30:56.371Z,1.70
2023-05-25T23:34:20.097Z,2.00
2023-05-25T23:37:43.986Z,1.50
2023-05-25T23:41:09.211Z,2.03
2023-05-25T23:44:33.065Z,1.80
2023-05-25T23:47:56.808Z,2.03
2023-05-25T23:51:20.972Z,1.70
2023-05-25T23:54:44.647Z,1.70
2023-05-25T23:58:09.688Z,2.03
